createdAt,value
2015-11-22T00:00:08.979Z,71397
2015-11-22T00:00:21.338Z,71402
2015-11-22T00:00:33.713Z,71403
2015-11-22T00:00:46.077Z,71407
2015-11-22T00:00:58.467Z,71400
2015-11-22T00:01:10.827Z,71395
2015-11-22T00:01:23.155Z,71391
2015-11-22T00:01:35.498Z,71388
2015-11-22T00:01:47.689Z,71383
2015-11-22T00:02:00.033Z,71383
2015-11-22T00:02:12.376Z,71379
2015-11-22T00:02:24.720Z,71383
2015-11-22T00:02:37.064Z,71379
2015-11-22T00:02:49.425Z,71372
2015-11-22T00:03:01.800Z,71362
2015-11-22T00:03:14.144Z,71368
2015-11-22T00:03:26.472Z,71384
2015-11-22T00:03:38.819Z,71394
2015-11-22T00:03:51.163Z,71407
2015-11-22T00:04:03.522Z,71402
2015-11-22T00:04:15.866Z,71394
2015-11-22T00:04:28.241Z,71377
2015-11-22T00:04:40.619Z,71379
2015-11-22T00:04:52.994Z,71385
2015-11-22T00:05:05.338Z,71392
2015-11-22T00:05:17.681Z,71399
2015-11-22T00:05:30.025Z,71396
2015-11-22T00:05:42.371Z,71400
2015-11-22T00:05:54.715Z,71403
2015-11-22T00:06:06.902Z,71412
2015-11-22T00:06:19.261Z,71412
2015-11-22T00:06:31.621Z,71409
2015-11-22T00:06:43.983Z,71406
2015-11-22T00:06:56.358Z,71403
2015-11-22T00:07:08.749Z,71406
2015-11-22T00:07:21.077Z,71402
2015-11-22T00:07:33.421Z,71398
2015-11-22T00:07:45.767Z,71399
2015-11-22T00:07:58.111Z,71398
2015-11-22T00:08:10.455Z,71394
2015-11-22T00:08:22.799Z,71395
2015-11-22T00:08:35.142Z,71400
2015-11-22T00:08:47.504Z,71405
2015-11-22T00:08:59.863Z,71409
2015-11-22T00:09:12.223Z,71414
2015-11-22T00:09:24.598Z,71407
2015-11-22T00:09:36.973Z,71406
2015-11-22T00:09:49.319Z,71399
2015-11-22T00:10:01.663Z,71409
2015-11-22T00:10:13.991Z,71408
2015-11-22T00:10:26.335Z,71407
2015-11-22T00:10:38.663Z,71400
2015-11-22T00:10:51.010Z,71404
2015-11-22T00:11:03.354Z,71406
2015-11-22T00:11:15.697Z,71405
2015-11-22T00:11:28.057Z,71407
2015-11-22T00:11:40.447Z,71410
2015-11-22T00:11:52.794Z,71397
2015-11-22T00:12:05.138Z,71405
2015-11-22T00:12:17.497Z,71399
2015-11-22T00:12:29.841Z,71402
2015-11-22T00:12:42.185Z,71406
2015-11-22T00:12:54.516Z,71405
2015-11-22T00:13:06.860Z,71407
2015-11-22T00:13:19.219Z,71406
2015-11-22T00:13:31.563Z,71411
2015-11-22T00:13:43.938Z,71408
2015-11-22T00:13:56.331Z,71400
2015-11-22T00:14:08.675Z,71399
2015-11-22T00:14:21.003Z,71405
2015-11-22T00:14:33.347Z,71405
2015-11-22T00:14:45.691Z,71408
2015-11-22T00:14:58.036Z,71406
2015-11-22T00:15:09.661Z,71408
2015-11-22T00:15:22.005Z,71407
2015-11-22T00:15:34.365Z,71412
2015-11-22T00:15:46.724Z,71411
2015-11-22T00:15:59.101Z,71409
2015-11-22T00:16:11.492Z,71396
2015-11-22T00:16:23.882Z,71404
2015-11-22T00:16:36.210Z,71407
2015-11-22T00:16:48.554Z,71420
2015-11-22T00:17:00.902Z,71409
2015-11-22T00:17:13.246Z,71403
2015-11-22T00:17:25.605Z,71409
2015-11-22T00:17:37.949Z,71410
2015-11-22T00:17:50.292Z,71417
2015-11-22T00:18:02.655Z,71416
2015-11-22T00:18:14.295Z,71412
2015-11-22T00:18:26.655Z,71416
2015-11-22T00:18:38.999Z,71411
2015-11-22T00:18:51.342Z,71408
2015-11-22T00:19:03.688Z,71406
2015-11-22T00:19:16.032Z,71412
2015-11-22T00:19:28.219Z,71419
2015-11-22T00:19:39.860Z,71423
2015-11-22T00:19:52.219Z,71418
2015-11-22T00:20:04.582Z,71414
2015-11-22T00:20:16.910Z,71413
2015-11-22T00:20:29.238Z,71408
2015-11-22T00:20:41.582Z,71408
2015-11-22T00:20:53.222Z,71413
2015-11-22T00:21:05.568Z,71415
2015-11-22T00:21:17.927Z,71413
2015-11-22T00:21:30.287Z,71413
2015-11-22T00:21:42.677Z,71413
2015-11-22T00:21:55.021Z,71410
2015-11-22T00:22:07.368Z,71412
2015-11-22T00:22:19.712Z,71404
2015-11-22T00:22:32.040Z,71413
2015-11-22T00:22:44.399Z,71416
2015-11-22T00:22:56.759Z,71414
2015-11-22T00:23:09.121Z,71408
2015-11-22T00:23:21.496Z,71410
2015-11-22T00:23:33.871Z,71417
2015-11-22T00:23:46.246Z,71415
2015-11-22T00:23:58.624Z,71417
2015-11-22T00:24:10.968Z,71410
2015-11-22T00:24:23.327Z,71406
2015-11-22T00:24:35.655Z,71404
2015-11-22T00:24:47.999Z,71411
2015-11-22T00:25:00.345Z,71410
2015-11-22T00:25:12.704Z,71404
2015-11-22T00:25:25.048Z,71397
2015-11-22T00:25:37.407Z,71406
2015-11-22T00:25:49.782Z,71416
2015-11-22T00:26:02.191Z,71408
2015-11-22T00:26:14.535Z,71407
2015-11-22T00:26:26.863Z,71405
2015-11-22T00:26:39.207Z,71405
2015-11-22T00:26:51.551Z,71405
2015-11-22T00:27:03.913Z,71405
2015-11-22T00:27:16.257Z,71407
2015-11-22T00:27:28.616Z,71406
2015-11-22T00:27:40.976Z,71406
2015-11-22T00:27:53.335Z,71405
2015-11-22T00:28:05.697Z,71395
2015-11-22T00:28:18.088Z,71397
2015-11-22T00:28:30.432Z,71404
2015-11-22T00:28:42.760Z,71400
2015-11-22T00:28:55.104Z,71384
2015-11-22T00:29:07.449Z,71392
2015-11-22T00:29:19.793Z,71396
2015-11-22T00:29:32.121Z,71402
2015-11-22T00:29:44.465Z,71395
2015-11-22T00:29:56.824Z,71398
2015-11-22T00:30:09.187Z,71392
2015-11-22T00:30:21.577Z,71393
2015-11-22T00:30:33.952Z,71392
2015-11-22T00:30:46.359Z,71390
2015-11-22T00:30:58.718Z,71390
2015-11-22T00:31:11.049Z,71387
2015-11-22T00:31:23.393Z,71390
2015-11-22T00:31:35.737Z,71400
2015-11-22T00:31:47.377Z,71397
2015-11-22T00:31:59.737Z,71386
2015-11-22T00:32:12.099Z,71393
2015-11-22T00:32:23.755Z,71381
2015-11-22T00:32:36.146Z,71383
2015-11-22T00:32:48.490Z,71381
2015-11-22T00:33:00.833Z,71397
2015-11-22T00:33:13.179Z,71397
2015-11-22T00:33:25.507Z,71398
2015-11-22T00:33:37.867Z,71394
2015-11-22T00:33:50.195Z,71388
2015-11-22T00:34:02.570Z,71395
2015-11-22T00:34:14.776Z,71389
2015-11-22T00:34:27.135Z,71396
2015-11-22T00:34:39.526Z,71393
2015-11-22T00:34:51.885Z,71387
2015-11-22T00:35:03.510Z,71382
2015-11-22T00:35:15.857Z,71392
2015-11-22T00:35:28.201Z,71393
2015-11-22T00:35:40.545Z,71389
2015-11-22T00:35:52.904Z,71390
2015-11-22T00:36:05.248Z,71396
2015-11-22T00:36:17.610Z,71402
2015-11-22T00:36:29.251Z,71402
2015-11-22T00:36:41.610Z,71405
2015-11-22T00:36:53.985Z,71392
2015-11-22T00:37:06.329Z,71392
2015-11-22T00:37:18.675Z,71389
2015-11-22T00:37:31.018Z,71400
2015-11-22T00:37:43.362Z,71397
2015-11-22T00:37:55.706Z,71385
2015-11-22T00:38:08.036Z,71399
2015-11-22T00:38:20.380Z,71395
2015-11-22T00:38:32.723Z,71400
2015-11-22T00:38:45.083Z,71391
2015-11-22T00:38:57.458Z,71398
2015-11-22T00:39:09.820Z,71400
2015-11-22T00:39:22.148Z,71396
2015-11-22T00:39:34.508Z,71393
2015-11-22T00:39:46.836Z,71392
2015-11-22T00:39:58.461Z,71382
2015-11-22T00:40:10.823Z,71367
2015-11-22T00:40:23.183Z,71373
2015-11-22T00:40:35.558Z,71373
2015-11-22T00:40:47.917Z,71387
2015-11-22T00:41:00.276Z,71387
2015-11-22T00:41:12.622Z,71387
2015-11-22T00:41:24.966Z,71384
2015-11-22T00:41:37.294Z,71381
2015-11-22T00:41:49.638Z,71380
2015-11-22T00:42:02.013Z,71402
2015-11-22T00:42:14.375Z,71401
2015-11-22T00:42:26.719Z,71402
2015-11-22T00:42:39.078Z,71398
2015-11-22T00:42:51.453Z,71400
2015-11-22T00:43:03.797Z,71400
2015-11-22T00:43:16.144Z,71395
2015-11-22T00:43:28.472Z,71395
2015-11-22T00:43:40.831Z,71401
2015-11-22T00:43:53.191Z,71397
2015-11-22T00:44:05.550Z,71398
2015-11-22T00:44:17.897Z,71392
2015-11-22T00:44:30.272Z,71396
2015-11-22T00:44:42.600Z,71391
2015-11-22T00:44:54.944Z,71390
2015-11-22T00:45:07.303Z,71387
2015-11-22T00:45:19.664Z,71381
2015-11-22T00:45:32.008Z,71393
2015-11-22T00:45:44.367Z,71395
2015-11-22T00:45:56.711Z,71398
2015-11-22T00:46:09.102Z,71399
2015-11-22T00:46:21.464Z,71410
2015-11-22T00:46:33.808Z,71407
2015-11-22T00:46:46.152Z,71399
2015-11-22T00:46:58.495Z,71402
2015-11-22T00:47:10.839Z,71403
2015-11-22T00:47:23.186Z,71402
2015-11-22T00:47:35.530Z,71396
2015-11-22T00:47:47.858Z,71397
2015-11-22T00:48:00.233Z,71394
2015-11-22T00:48:12.592Z,71384
2015-11-22T00:48:24.970Z,71398
2015-11-22T00:48:37.345Z,71400
2015-11-22T00:48:49.736Z,71402
2015-11-22T00:49:02.095Z,71396
2015-11-22T00:49:14.283Z,71401
2015-11-22T00:49:26.614Z,71399
2015-11-22T00:49:38.958Z,71405
2015-11-22T00:49:51.317Z,71403
2015-11-22T00:50:03.661Z,71407
2015-11-22T00:50:16.004Z,71409
2015-11-22T00:50:28.366Z,71388
2015-11-22T00:50:40.725Z,71380
2015-11-22T00:50:52.366Z,71386
2015-11-22T00:51:04.741Z,71387
2015-11-22T00:51:17.116Z,71390
2015-11-22T00:51:29.478Z,71400
2015-11-22T00:51:41.806Z,71399
2015-11-22T00:51:54.150Z,71366
2015-11-22T00:52:06.494Z,71374
2015-11-22T00:52:18.853Z,71377
2015-11-22T00:52:31.184Z,71376
2015-11-22T00:52:43.544Z,71382
2015-11-22T00:52:55.887Z,71386
2015-11-22T00:53:08.247Z,71388
2015-11-22T00:53:20.606Z,71395
2015-11-22T00:53:33.030Z,71396
2015-11-22T00:53:45.405Z,71393
2015-11-22T00:53:57.733Z,71379
2015-11-22T00:54:10.061Z,71385
2015-11-22T00:54:21.671Z,71389
2015-11-22T00:54:34.017Z,71399
2015-11-22T00:54:46.361Z,71388
2015-11-22T00:54:57.986Z,71391
2015-11-22T00:55:10.314Z,71391
2015-11-22T00:55:22.674Z,71387
2015-11-22T00:55:34.333Z,71393
2015-11-22T00:55:46.708Z,71396
2015-11-22T00:55:59.083Z,71396
2015-11-22T00:56:11.458Z,71398
2015-11-22T00:56:23.849Z,71399
2015-11-22T00:56:36.180Z,71394
2015-11-22T00:56:48.523Z,71383
2015-11-22T00:57:00.867Z,71399
2015-11-22T00:57:13.195Z,71406
2015-11-22T00:57:25.539Z,71407
2015-11-22T00:57:37.886Z,71392
2015-11-22T00:57:50.245Z,71400
2015-11-22T00:58:02.433Z,71394
2015-11-22T00:58:14.808Z,71393
2015-11-22T00:58:27.167Z,71393
2015-11-22T00:58:39.544Z,71400
2015-11-22T00:58:51.732Z,71402
2015-11-22T00:59:04.075Z,71407
2015-11-22T00:59:16.419Z,71407
2015-11-22T00:59:28.044Z,71399
2015-11-22T00:59:40.375Z,71396
2015-11-22T00:59:52.719Z,71408
2015-11-22T01:00:05.063Z,71409
2015-11-22T01:00:17.422Z,71398
2015-11-22T01:00:29.784Z,71407
2015-11-22T01:00:42.159Z,71410
2015-11-22T01:00:54.519Z,71398
2015-11-22T01:01:06.894Z,71401
2015-11-22T01:01:19.081Z,71405
2015-11-22T01:01:31.428Z,71395
2015-11-22T01:01:43.772Z,71396
2015-11-22T01:01:56.116Z,71399
2015-11-22T01:02:08.459Z,71405
2015-11-22T01:02:20.803Z,71406
2015-11-22T01:02:33.164Z,71391
2015-11-22T01:02:45.508Z,71393
2015-11-22T01:02:57.868Z,71393
2015-11-22T01:03:10.243Z,71400
2015-11-22T01:03:21.930Z,71399
2015-11-22T01:03:34.308Z,71405
2015-11-22T01:03:46.652Z,71402
2015-11-22T01:03:58.996Z,71404
2015-11-22T01:04:11.339Z,71407
2015-11-22T01:04:23.683Z,71391
2015-11-22T01:04:35.327Z,71397
2015-11-22T01:04:47.670Z,71401
2015-11-22T01:05:00.045Z,71397
2015-11-22T01:05:12.405Z,71405
2015-11-22T01:05:24.795Z,71401
2015-11-22T01:05:37.142Z,71405
2015-11-22T01:05:49.486Z,71408
2015-11-22T01:06:01.830Z,71409
2015-11-22T01:06:14.173Z,71409
2015-11-22T01:06:26.517Z,71407
2015-11-22T01:06:38.160Z,71416
2015-11-22T01:06:50.504Z,71389
2015-11-22T01:07:02.863Z,71396
2015-11-22T01:07:15.222Z,71398
2015-11-22T01:07:27.582Z,71387
2015-11-22T01:07:39.960Z,71388
2015-11-22T01:07:52.366Z,71385
2015-11-22T01:08:04.725Z,71395
2015-11-22T01:08:17.053Z,71398
2015-11-22T01:08:29.663Z,71403
2015-11-22T01:08:41.306Z,71392
2015-11-22T01:08:53.650Z,71395
2015-11-22T01:09:05.275Z,71401
2015-11-22T01:09:17.635Z,71403
2015-11-22T01:09:29.978Z,71396
2015-11-22T01:09:42.355Z,71395
2015-11-22T01:09:54.715Z,71393
2015-11-22T01:10:07.105Z,71397
2015-11-22T01:10:19.480Z,71402
2015-11-22T01:10:31.824Z,71396
2015-11-22T01:10:44.171Z,71399
2015-11-22T01:10:56.499Z,71406
2015-11-22T01:11:08.843Z,71400
2015-11-22T01:11:21.186Z,71400
2015-11-22T01:11:33.530Z,71400
2015-11-22T01:11:45.877Z,71392
2015-11-22T01:11:58.236Z,71398
2015-11-22T01:12:09.861Z,71400
2015-11-22T01:12:22.252Z,71405
2015-11-22T01:12:34.627Z,71409
2015-11-22T01:12:47.005Z,71402
2015-11-22T01:12:59.380Z,71401
2015-11-22T01:13:11.724Z,71401
2015-11-22T01:13:24.067Z,71402
2015-11-22T01:13:36.411Z,71404
2015-11-22T01:13:48.741Z,71411
2015-11-22T01:14:01.085Z,71417
2015-11-22T01:14:13.429Z,71418
2015-11-22T01:14:25.788Z,71406
2015-11-22T01:14:38.148Z,71409
2015-11-22T01:14:50.526Z,71413
2015-11-22T01:15:02.901Z,71416
2015-11-22T01:15:15.260Z,71412
2015-11-22T01:15:27.619Z,71398
2015-11-22T01:15:39.963Z,71410
2015-11-22T01:15:52.310Z,71418
2015-11-22T01:16:04.654Z,71413
2015-11-22T01:16:16.997Z,71413
2015-11-22T01:16:29.325Z,71404
2015-11-22T01:16:41.669Z,71408
2015-11-22T01:16:54.015Z,71404
2015-11-22T01:17:06.374Z,71406
2015-11-22T01:17:18.749Z,71403
2015-11-22T01:17:31.109Z,71404
2015-11-22T01:17:43.437Z,71402
2015-11-22T01:17:55.784Z,71402
2015-11-22T01:18:08.127Z,71399
2015-11-22T01:18:20.471Z,71399
2015-11-22T01:18:32.799Z,71401
2015-11-22T01:18:45.143Z,71412
2015-11-22T01:18:57.505Z,71408
2015-11-22T01:19:09.880Z,71410
2015-11-22T01:19:22.396Z,71402
2015-11-22T01:19:34.771Z,71401
2015-11-22T01:19:47.115Z,71402
2015-11-22T01:19:59.446Z,71401
2015-11-22T01:20:11.790Z,71409
2015-11-22T01:20:24.133Z,71409
2015-11-22T01:20:36.477Z,71401
2015-11-22T01:20:48.102Z,71398
2015-11-22T01:21:00.449Z,71398
2015-11-22T01:21:12.808Z,71391
2015-11-22T01:21:25.168Z,71389
2015-11-22T01:21:37.543Z,71396
2015-11-22T01:21:49.949Z,71406
2015-11-22T01:22:02.295Z,71402
2015-11-22T01:22:14.466Z,71401
2015-11-22T01:22:55.141Z,71408
2015-11-22T01:23:07.485Z,71412
2015-11-22T01:23:19.829Z,71417
2015-11-22T01:23:32.188Z,71417
2015-11-22T01:23:44.548Z,71417
2015-11-22T01:23:56.925Z,71409
2015-11-22T01:24:09.315Z,71405
2015-11-22T01:24:21.675Z,71405
2015-11-22T01:24:34.034Z,71412
2015-11-22T01:24:46.378Z,71409
2015-11-22T01:24:58.724Z,71400
2015-11-22T01:25:11.068Z,71401
2015-11-22T01:25:23.396Z,71407
2015-11-22T01:25:35.740Z,71408
2015-11-22T01:25:48.068Z,71409
2015-11-22T01:26:00.431Z,71410
2015-11-22T01:26:12.790Z,71415
2015-11-22T01:26:25.165Z,71415
2015-11-22T01:26:37.540Z,71414
2015-11-22T01:26:49.884Z,71415
2015-11-22T01:27:02.230Z,71414
2015-11-22T01:27:14.559Z,71413
2015-11-22T01:27:26.902Z,71405
2015-11-22T01:27:39.262Z,71405
2015-11-22T01:27:51.590Z,71420
2015-11-22T01:28:03.921Z,71413
2015-11-22T01:28:16.265Z,71407
2015-11-22T01:28:28.608Z,71400
2015-11-22T01:28:40.968Z,71391
2015-11-22T01:28:53.327Z,71383
2015-11-22T01:29:04.970Z,71388
2015-11-22T01:29:17.376Z,71383
2015-11-22T01:29:29.735Z,71390
2015-11-22T01:29:42.064Z,71395
2015-11-22T01:29:54.407Z,71403
2015-11-22T01:30:06.738Z,71402
2015-11-22T01:30:19.098Z,71410
2015-11-22T01:30:31.442Z,71413
2015-11-22T01:30:43.785Z,71416
2015-11-22T01:30:56.129Z,71412
2015-11-22T01:31:08.491Z,71406
2015-11-22T01:31:20.851Z,71387
2015-11-22T01:31:33.210Z,71388
2015-11-22T01:31:45.554Z,71388
2015-11-22T01:31:57.882Z,71395
2015-11-22T01:32:10.228Z,71399
2015-11-22T01:32:22.572Z,71395
2015-11-22T01:32:34.900Z,71392
2015-11-22T01:32:47.259Z,71385
2015-11-22T01:32:59.587Z,71396
2015-11-22T01:33:11.950Z,71393
2015-11-22T01:33:24.325Z,71390
2015-11-22T01:33:36.684Z,71381
2015-11-22T01:33:49.043Z,71369
2015-11-22T01:34:01.387Z,71377
2015-11-22T01:34:13.734Z,71390
2015-11-22T01:34:26.078Z,71409
2015-11-22T01:34:38.406Z,71395
2015-11-22T01:34:50.765Z,71388
2015-11-22T01:35:03.109Z,71385
2015-11-22T01:35:15.456Z,71390
2015-11-22T01:35:27.799Z,71396
2015-11-22T01:35:40.159Z,71392
2015-11-22T01:35:52.518Z,71389
2015-11-22T01:36:04.846Z,71363
2015-11-22T01:36:17.193Z,71359
2015-11-22T01:36:29.537Z,71363
2015-11-22T01:36:41.865Z,71351
2015-11-22T01:36:54.224Z,71358
2015-11-22T01:37:06.586Z,71366
2015-11-22T01:37:18.945Z,71353
2015-11-22T01:37:31.336Z,71363
2015-11-22T01:37:43.711Z,71375
2015-11-22T01:37:56.101Z,71377
2015-11-22T01:38:07.729Z,71390
2015-11-22T01:38:20.073Z,71381
2015-11-22T01:38:32.417Z,71387
2015-11-22T01:38:44.760Z,71370
2015-11-22T01:38:57.104Z,71357
2015-11-22T01:39:09.451Z,71368
2015-11-22T01:39:21.795Z,71381
2015-11-22T01:39:34.138Z,71391
2015-11-22T01:39:46.498Z,71392
2015-11-22T01:39:58.873Z,71382
2015-11-22T01:40:11.219Z,71382
2015-11-22T01:40:23.562Z,71371
2015-11-22T01:40:35.890Z,71367
2015-11-22T01:40:48.250Z,71371
2015-11-22T01:41:00.609Z,71369
2015-11-22T01:41:12.956Z,71371
2015-11-22T01:41:25.331Z,71366
2015-11-22T01:41:37.706Z,71364
2015-11-22T01:41:50.081Z,71373
2015-11-22T01:42:02.456Z,71369
2015-11-22T01:42:14.803Z,71373
2015-11-22T01:42:27.131Z,71368
2015-11-22T01:42:39.490Z,71372
2015-11-22T01:42:51.818Z,71364
2015-11-22T01:43:04.178Z,71366
2015-11-22T01:43:16.540Z,71371
2015-11-22T01:43:28.915Z,71380
2015-11-22T01:43:41.274Z,71378
2015-11-22T01:43:53.618Z,71380
2015-11-22T01:44:05.962Z,71380
2015-11-22T01:44:18.308Z,71380
2015-11-22T01:44:30.636Z,71372
2015-11-22T01:44:42.980Z,71373
2015-11-22T01:44:55.355Z,71377
2015-11-22T01:45:07.683Z,71376
2015-11-22T01:45:20.045Z,71379
2015-11-22T01:45:32.389Z,71385
2015-11-22T01:45:44.764Z,71386
2015-11-22T01:45:57.139Z,71392
2015-11-22T01:46:09.514Z,71387
2015-11-22T01:46:21.861Z,71373
2015-11-22T01:46:34.204Z,71363
2015-11-22T01:46:46.548Z,71373
2015-11-22T01:46:58.876Z,71375
2015-11-22T01:47:11.236Z,71373
2015-11-22T01:47:23.582Z,71366
2015-11-22T01:47:35.926Z,71373
2015-11-22T01:47:48.270Z,71382
2015-11-22T01:48:00.629Z,71378
2015-11-22T01:48:12.989Z,71374
2015-11-22T01:48:25.209Z,71360
2015-11-22T01:48:37.584Z,71372
2015-11-22T01:48:49.975Z,71374
2015-11-22T01:49:02.319Z,71370
2015-11-22T01:49:14.662Z,71378
2015-11-22T01:49:27.009Z,71373
2015-11-22T01:49:39.353Z,71379
2015-11-22T01:49:51.697Z,71381
2015-11-22T01:50:04.025Z,71381
2015-11-22T01:50:16.384Z,71383
2015-11-22T01:50:28.746Z,71383
2015-11-22T01:50:41.105Z,71380
2015-11-22T01:50:53.480Z,71378
2015-11-22T01:51:05.855Z,71387
2015-11-22T01:51:18.214Z,71363
2015-11-22T01:51:30.562Z,71364
2015-11-22T01:51:42.906Z,71357
2015-11-22T01:51:55.250Z,71351
2015-11-22T01:52:07.578Z,71351
2015-11-22T01:52:19.939Z,71355
2015-11-22T01:52:32.283Z,71361
2015-11-22T01:52:44.642Z,71362
2015-11-22T01:52:56.986Z,71384
2015-11-22T01:53:09.361Z,71389
2015-11-22T01:53:21.755Z,71382
2015-11-22T01:53:34.145Z,71381
2015-11-22T01:53:46.489Z,71388
2015-11-22T01:53:58.833Z,71380
2015-11-22T01:54:11.161Z,71375
2015-11-22T01:54:23.507Z,71386
2015-11-22T01:54:35.850Z,71388
2015-11-22T01:54:48.194Z,71398
2015-11-22T01:55:00.538Z,71380
2015-11-22T01:55:12.897Z,71385
2015-11-22T01:55:25.244Z,71382
2015-11-22T01:55:37.603Z,71390
2015-11-22T01:55:49.963Z,71396
2015-11-22T01:56:02.322Z,71390
2015-11-22T01:56:14.666Z,71390
2015-11-22T01:56:27.028Z,71388
2015-11-22T01:56:39.356Z,71386
2015-11-22T01:56:51.716Z,71383
2015-11-22T01:57:03.356Z,71401
2015-11-22T01:57:15.731Z,71380
2015-11-22T01:57:28.109Z,71333
2015-11-22T01:57:40.484Z,71355
2015-11-22T01:57:52.844Z,71379
2015-11-22T01:58:04.484Z,71398
2015-11-22T01:58:16.828Z,71405
2015-11-22T01:58:29.175Z,71401
2015-11-22T01:58:41.534Z,71382
2015-11-22T01:58:53.878Z,71371
2015-11-22T01:59:06.222Z,71371
2015-11-22T01:59:18.565Z,71371
2015-11-22T01:59:30.911Z,71356
2015-11-22T01:59:43.271Z,71364
2015-11-22T01:59:55.630Z,71359
2015-11-22T02:00:08.036Z,71375
2015-11-22T02:00:20.364Z,71385
2015-11-22T02:00:32.711Z,71364
2015-11-22T02:00:44.336Z,71375
2015-11-22T02:00:56.664Z,71374
2015-11-22T02:01:08.305Z,71383
2015-11-22T02:01:20.633Z,71387
2015-11-22T02:01:32.980Z,71387
2015-11-22T02:01:44.605Z,71383
2015-11-22T02:01:56.964Z,71362
2015-11-22T02:02:09.323Z,71360
2015-11-22T02:02:21.683Z,71363
2015-11-22T02:02:34.060Z,71362
2015-11-22T02:02:46.388Z,71355
2015-11-22T02:02:58.732Z,71361
2015-11-22T02:03:11.075Z,71359
2015-11-22T02:03:23.435Z,71356
2015-11-22T02:03:35.797Z,71361
2015-11-22T02:03:48.141Z,71374
2015-11-22T02:04:00.485Z,71379
2015-11-22T02:04:12.828Z,71375
2015-11-22T02:04:25.188Z,71373
2015-11-22T02:04:37.566Z,71381
2015-11-22T02:04:49.956Z,71378
2015-11-22T02:05:02.300Z,71376
2015-11-22T02:05:14.628Z,71371
2015-11-22T02:05:26.988Z,71369
2015-11-22T02:05:39.334Z,71369
2015-11-22T02:05:51.678Z,71375
2015-11-22T02:06:04.006Z,71375
2015-11-22T02:06:16.350Z,71387
2015-11-22T02:06:28.709Z,71377
2015-11-22T02:06:41.055Z,71366
2015-11-22T02:06:53.430Z,71367
2015-11-22T02:07:05.821Z,71367
2015-11-22T02:07:18.196Z,71371
2015-11-22T02:07:30.555Z,71373
2015-11-22T02:07:42.183Z,71367
2015-11-22T02:07:54.511Z,71359
2015-11-22T02:08:06.855Z,71368
2015-11-22T02:08:19.199Z,71361
2015-11-22T02:08:31.543Z,71369
2015-11-22T02:08:43.889Z,71351
2015-11-22T02:08:56.233Z,71352
2015-11-22T02:09:08.577Z,71349
2015-11-22T02:09:20.952Z,71364
2015-11-22T02:09:33.327Z,71368
2015-11-22T02:09:45.673Z,71362
2015-11-22T02:09:58.001Z,71354
2015-11-22T02:10:09.641Z,71351
2015-11-22T02:10:21.985Z,71358
2015-11-22T02:10:34.344Z,71362
2015-11-22T02:10:46.676Z,71368
2015-11-22T02:10:59.019Z,71356
2015-11-22T02:11:11.363Z,71363
2015-11-22T02:11:23.722Z,71360
2015-11-22T02:11:36.097Z,71358
2015-11-22T02:11:48.585Z,71349
2015-11-22T02:12:00.960Z,71357
2015-11-22T02:12:13.335Z,71355
2015-11-22T02:12:25.679Z,71362
2015-11-22T02:12:38.007Z,71363
2015-11-22T02:12:50.369Z,71367
2015-11-22T02:13:02.697Z,71359
2015-11-22T02:13:15.057Z,71355
2015-11-22T02:13:27.400Z,71349
2015-11-22T02:13:39.760Z,71343
2015-11-22T02:13:52.111Z,71344
2015-11-22T02:14:04.486Z,71349
2015-11-22T02:14:16.845Z,71352
2015-11-22T02:14:29.189Z,71353
2015-11-22T02:14:41.533Z,71356
2015-11-22T02:14:53.867Z,71352
2015-11-22T02:15:06.226Z,71353
2015-11-22T02:15:18.570Z,71358
2015-11-22T02:15:30.914Z,71356
2015-11-22T02:15:43.247Z,71369
2015-11-22T02:15:55.607Z,71366
2015-11-22T02:16:07.966Z,71365
2015-11-22T02:16:20.325Z,71372
2015-11-22T02:16:32.685Z,71372
2015-11-22T02:16:44.862Z,71366
2015-11-22T02:16:57.206Z,71365
2015-11-22T02:17:09.550Z,71352
2015-11-22T02:17:21.894Z,71362
2015-11-22T02:17:34.253Z,71363
2015-11-22T02:17:46.601Z,71363
2015-11-22T02:17:58.976Z,71366
2015-11-22T02:18:11.351Z,71375
2015-11-22T02:18:23.586Z,71375
2015-11-22T02:18:35.914Z,71377
2015-11-22T02:18:47.537Z,71371
2015-11-22T02:18:59.896Z,71369
2015-11-22T02:19:12.084Z,71375
2015-11-22T02:19:24.443Z,71370
2015-11-22T02:19:36.787Z,71360
2015-11-22T02:19:49.113Z,71372
2015-11-22T02:20:01.472Z,71380
2015-11-22T02:20:13.832Z,71377
2015-11-22T02:20:26.207Z,71368
2015-11-22T02:20:38.566Z,71364
2015-11-22T02:20:50.923Z,71377
2015-11-22T02:21:03.111Z,71380
2015-11-22T02:21:15.455Z,71375
2015-11-22T02:21:27.783Z,71371
2015-11-22T02:21:40.142Z,71360
2015-11-22T02:21:51.764Z,71361
2015-11-22T02:22:04.092Z,71356
2015-11-22T02:22:16.452Z,71350
2015-11-22T02:22:28.092Z,71353
2015-11-22T02:22:40.452Z,71349
2015-11-22T02:22:52.826Z,71352
2015-11-22T02:23:05.154Z,71354
2015-11-22T02:23:17.498Z,71346
2015-11-22T02:23:29.857Z,71346
2015-11-22T02:23:42.185Z,71342
2015-11-22T02:23:54.530Z,71351
2015-11-22T02:24:06.874Z,71355
2015-11-22T02:24:19.217Z,71348
2015-11-22T02:24:31.592Z,71363
2015-11-22T02:24:43.936Z,71358
2015-11-22T02:24:56.312Z,71356
2015-11-22T02:25:08.531Z,71362
2015-11-22T02:25:20.906Z,71357
2015-11-22T02:25:33.265Z,71356
2015-11-22T02:25:45.609Z,71356
2015-11-22T02:25:57.954Z,71362
2015-11-22T02:26:10.282Z,71354
2015-11-22T02:26:21.922Z,71353
2015-11-22T02:26:34.110Z,71349
2015-11-22T02:26:45.751Z,71344
2015-11-22T02:26:58.112Z,71344
2015-11-22T02:27:10.471Z,71349
2015-11-22T02:27:22.815Z,71356
2015-11-22T02:27:35.174Z,71349
2015-11-22T02:27:47.534Z,71339
2015-11-22T02:27:59.863Z,71342
2015-11-22T02:28:11.488Z,71343
2015-11-22T02:28:23.832Z,71358
2015-11-22T02:28:36.207Z,71367
2015-11-22T02:28:48.550Z,71362
2015-11-22T02:29:00.912Z,71365
2015-11-22T02:29:13.302Z,71350
2015-11-22T02:29:25.677Z,71350
2015-11-22T02:29:38.021Z,71340
2015-11-22T02:29:50.349Z,71337
2015-11-22T02:30:02.695Z,71333
2015-11-22T02:30:15.039Z,71347
2015-11-22T02:30:27.383Z,71350
2015-11-22T02:30:39.726Z,71353
2015-11-22T02:30:52.070Z,71355
2015-11-22T02:31:04.463Z,71349
2015-11-22T02:31:16.822Z,71343
2015-11-22T02:31:29.197Z,71350
2015-11-22T02:31:41.588Z,71351
2015-11-22T02:31:53.963Z,71353
2015-11-22T02:32:06.324Z,71357
2015-11-22T02:32:18.668Z,71336
2015-11-22T02:32:31.012Z,71346
2015-11-22T02:32:43.355Z,71358
2015-11-22T02:32:55.703Z,71363
2015-11-22T02:33:08.047Z,71361
2015-11-22T02:33:20.391Z,71356
2015-11-22T02:33:32.766Z,71355
2015-11-22T02:33:45.141Z,71358
2015-11-22T02:33:57.501Z,71355
2015-11-22T02:34:09.720Z,71345
2015-11-22T02:34:22.079Z,71342
2015-11-22T02:34:34.470Z,71352
2015-11-22T02:34:46.798Z,71346
2015-11-22T02:34:59.145Z,71348
2015-11-22T02:35:11.488Z,71347
2015-11-22T02:35:23.832Z,71352
2015-11-22T02:35:36.176Z,71345
2015-11-22T02:35:48.520Z,71340
2015-11-22T02:36:00.725Z,71341
2015-11-22T02:36:13.084Z,71338
2015-11-22T02:36:25.287Z,71340
2015-11-22T02:36:36.928Z,71342
2015-11-22T02:36:49.287Z,71341
2015-11-22T02:37:01.650Z,71342
2015-11-22T02:37:13.993Z,71342
2015-11-22T02:37:25.603Z,71345
2015-11-22T02:37:37.946Z,71354
2015-11-22T02:37:50.290Z,71353
2015-11-22T02:38:02.635Z,71347
2015-11-22T02:38:14.276Z,71358
2015-11-22T02:38:26.635Z,71345
2015-11-22T02:38:39.010Z,71336
2015-11-22T02:38:51.385Z,71336
2015-11-22T02:39:03.060Z,71332